Airfield :
LOGIN :

Register | Disclaimer

   EN    FR    IT 

 










Legend :    VFR   Marginal VFR   IFR   Intensive IFR   Very Intensive IFR
Visi :
Ceiling :
>= 8 km
>= 3000ft
5 to 8 km
1000 to 3000 ft
1500m to 5 km
500 to 1000 ft
800 to 1500m
200 to 500 ft
< 800m
< 200 ft
Symbols :   Thunderstorms  Fog  Heavy snow  Heavy precipitations  Wind > 20 kt
SIGMETs :     Misc.  Thunderstorms  Icing  Turbulence  Mountain Waves  Volcanic Ashes






- Airport Elevation : 390 ft
- IATA code : TMP


EFTP - Tampere-Pirkkala

CURRENT METAR :
  • 171020Z AUTO 17005KT 7000 FEW008 SCT018 BKN028 OVC038/// 06/06 Q1014

EXPIRED METARs :
  • 170950Z AUTO 17006KT 6000 FEW005 SCT013 BKN017 OVC027/// 06/06 Q1014
  • 170920Z AUTO 16006KT 8000 FEW007 BKN033 BKN039/// 06/05 Q1014
  • 170850Z AUTO 16006KT 9999 FEW001 BKN035/// 05/05 Q1014
  • 170820Z AUTO 15006KT 9999 BKN001 BKN005/// 05/05 Q1014
  • 170750Z AUTO 15007KT 3200 BR BKN001 BKN003/// 04/04 Q1014

TAF TAF EFTP
Valid from the 17 at 09:00 until the 18 at 09:00 UTC


170831Z 1709/1809 17008KT 4000 BR BKN001
BECMG 1709/1711 9999 NSW SCT005 BKN015
TEMPO 1711/1713 5000 -DZ BKN006
BECMG 1713/1715 4000 BR BKN003
TEMPO 1715/1718 6000 -DZRA BKN005
TEMPO 1718/1809 0500 FG VV001



MET'MAP, your aeronautical weather chart ! - Copyright ORBIFLY December 2007 - Disclaimer

ORBIFLY MET'MAP TEAM :

Programming & Development : Alexandra Zaïnal
Concept & Development : Baudouin d'Aumeries
Co-Development & Prog : Marc-Olivier Méhu
Technical & hardware support : Manuel Goepfert

Contact : metmap@orbifly.com




SOURCES & CREDITS :

   NOAA